Flight Track Log - Related Links

Times and Time Zones

All times are in EDT time to prevent confusion due to time zone crossing. See the SWA1464 flight status page for this flight to view local times or setup timezone preferences in your user account.

Time Position Orientation Groundspeed Altitude Reporting Facility
EDT Latitude Longitude Course Direction KTS MPH feet Rate Location/Type
Wed 10:48:29 AM 35.1558 -80.9572 185° South 178 205 3,100  Level Atlanta Center
Wed 10:49:42 AM 35.1414 -81.0492 259° West 247 284 5,200 2,571 Climbing Atlanta Center
Wed 10:50:42 AM 35.1356 -81.1511 266° West 272 313 8,800 3,400 Climbing Atlanta Center
Wed 10:51:42 AM 35.1211 -81.2431 259° West 277 319 12,000 2,600 Climbing Atlanta Center
Wed 10:52:42 AM 35.0731 -81.3386 238° Southwest 301 346 14,000 1,200 Climbing Atlanta Center
Wed 10:53:42 AM 35.0397 -81.4436 249° West 328 377 14,400 1,450 Climbing Atlanta Center
Wed 10:54:42 AM 35.0067 -81.5561 250° West 348 400 16,900 2,400 Climbing Atlanta Center
Wed 10:55:42 AM 34.9717 -81.6764 250° West 366 421 19,200 2,450 Climbing Atlanta Center
Wed 10:56:42 AM 34.9322 -81.7992 249° West 384 442 21,800 2,150 Climbing Atlanta Center
Wed 10:57:42 AM 34.8819 -81.9069 240° Southwest 401 461 23,500 1,950 Climbing Atlanta Center
Wed 10:58:42 AM 34.8086 -82.0250 233° Southwest 406 467 25,700 2,100 Climbing Atlanta Center
Wed 10:59:42 AM 34.7397 -82.1481 236° Southwest 427 491 27,700 1,800 Climbing Atlanta Center
Wed 11:00:42 AM 34.6725 -82.2633 235° Southwest 432 497 29,300 1,650 Climbing Atlanta Center
Wed 11:01:42 AM 34.6033 -82.3883 236° Southwest 432 497 31,000 1,800 Climbing Atlanta Center
Wed 11:02:42 AM 34.5339 -82.5056 234° Southwest 437 503 32,900 1,500 Climbing Atlanta Center
Wed 11:03:42 AM 34.4683 -82.6103 233° Southwest 437 503 34,000 550 Climbing Atlanta Center
Wed 11:04:42 AM 34.4008 -82.7272 235° Southwest 437 503 34,000  Level Atlanta Center
Wed 11:05:42 AM 34.3269 -82.8542 235° Southwest 432 497 34,000  Level Atlanta Center
Wed 11:06:42 AM 34.2633 -82.9681 236° Southwest 427 491 34,000 1,050 Level Atlanta Center
Wed 11:07:42 AM 34.1956 -83.0819 234° Southwest 427 491 36,100 1,650 Climbing Atlanta Center
Wed 11:08:42 AM 34.1294 -83.1931 234° Southwest 422 486 37,300 950 Climbing Atlanta Center
Wed 11:09:42 AM 34.0656 -83.3067 236° Southwest 415 478 38,000 350 Climbing Atlanta Center
Wed 11:10:42 AM 33.9992 -83.4175 234° Southwest 415 478 38,000  Level Atlanta Center
Wed 11:11:42 AM 33.9331 -83.5331 235° Southwest 420 483 38,000  Level Atlanta Center
Wed 11:12:42 AM 33.8647 -83.6486 235° Southwest 420 483 38,000  Level Atlanta Center
Wed 11:13:42 AM 33.8231 -83.7564 245° Southwest 415 478 38,000  Level Atlanta Center
Wed 11:14:42 AM 33.7858 -83.8864 251° West 415 478 38,000  Level Atlanta Center
Wed 11:15:42 AM 33.7483 -84.0139 251° West 415 478 38,000  Level Atlanta Center
Wed 11:16:42 AM 33.7086 -84.1436 250° West 410 472 38,000  Level Atlanta Center
Wed 11:17:42 AM 33.6772 -84.2758 254° West 410 472 38,000  Level Atlanta Center
Wed 11:18:42 AM 33.6350 -84.4031 248° West 410 472 38,000  Level Atlanta Center
Wed 11:19:42 AM 33.6094 -84.5575 259° West 410 472 38,000  Level Atlanta Center
Wed 11:20:42 AM 33.5881 -84.6897 259° West 415 478 38,000  Level Atlanta Center
Wed 11:21:42 AM 33.5706 -84.8242 261° West 415 478 38,000  Level Atlanta Center
Wed 11:22:42 AM 33.5528 -84.9561 261° West 410 472 38,000  Level Atlanta Center
Wed 11:23:42 AM 33.5331 -85.0781 259° West 410 472 38,000  Level Atlanta Center
Wed 11:24:42 AM 33.5131 -85.2147 260° West 415 478 38,000  Level Atlanta Center
Wed 11:25:42 AM 33.4908 -85.3539 259° West 421 484 38,000  Level Atlanta Center
Wed 11:26:42 AM 33.4683 -85.4906 259° West 426 490 38,000  Level Atlanta Center
Wed 11:27:42 AM 33.4481 -85.6297 260° West 426 490 38,000  Level Atlanta Center
Wed 11:28:42 AM 33.4253 -85.7686 259° West 432 497 38,000  Level Atlanta Center
Wed 11:29:42 AM 33.4044 -85.8978 259° West 414 476 38,000  Level Atlanta Center
Wed 11:30:42 AM 33.3814 -86.0364 259° West 409 471 38,000  Level Atlanta Center
Wed 11:31:42 AM 33.3603 -86.1803 260° West 428 493 38,000  Level Atlanta Center
Wed 11:32:42 AM 33.3369 -86.3189 259° West 428 493 38,000  Level Atlanta Center
Wed 11:33:42 AM 33.3089 -86.4747 258° West 428 493 38,000  Level Atlanta Center
Wed 11:34:42 AM 33.2917 -86.6033 261° West 434 499 38,000  Level Atlanta Center
Wed 11:35:42 AM 33.2678 -86.7419 258° West 434 499 38,000  Level Atlanta Center
Wed 11:36:42 AM 33.2436 -86.8878 259° West 434 499 38,000  Level Atlanta Center
Wed 11:37:42 AM 33.2069 -87.0281 253° West 440 506 38,000  Level Atlanta Center
Wed 11:38:42 AM 33.1575 -87.1678 247° West 435 501 38,000  Level Atlanta Center
Wed 11:39:42 AM 33.1122 -87.3025 248° West 435 501 38,000  Level Atlanta Center
Wed 11:40:42 AM 33.0692 -87.4347 249° West 435 501 38,000  Level Atlanta Center
Wed 11:42:57 AM 32.9717 -87.7225 248° West 418 481 38,000  Level Memphis Center
Wed 11:43:57 AM 32.9286 -87.8575 249° West 430 495 38,000  Level Memphis Center
Wed 11:44:57 AM 32.8853 -87.9922 249° West 435 501 38,000  Level Memphis Center
Wed 11:45:57 AM 32.8397 -88.1269 248° West 435 501 38,000  Level Memphis Center
Wed 11:46:57 AM 32.7881 -88.2742 247° West 435 501 38,000  Level Memphis Center
Wed 11:47:57 AM 32.7442 -88.4061 248° West 435 501 38,000  Level Memphis Center
Wed 11:48:57 AM 32.6983 -88.5403 248° West 440 506 38,000  Level Memphis Center
Wed 11:49:57 AM 32.6522 -88.6744 248° West 440 506 38,000  Level Memphis Center
Wed 11:50:57 AM 32.6058 -88.8061 247° West 440 506 38,000  Level Memphis Center
Wed 11:51:57 AM 32.5614 -88.9375 248° West 440 506 38,000  Level Memphis Center
Wed 11:52:57 AM 32.5150 -89.0689 247° West 440 506 38,000  Level Memphis Center
Wed 11:53:57 AM 32.4703 -89.2000 248° West 440 506 38,000  Level Memphis Center
Wed 11:54:57 AM 32.4214 -89.3336 247° West 440 506 38,000  Level Memphis Center
Wed 11:55:57 AM 32.3744 -89.4669 247° West 440 506 38,000  Level Memphis Center
Wed 11:56:57 AM 32.3272 -89.6025 248° West 440 506 38,000  Level Memphis Center
Wed 11:57:57 AM 32.2778 -89.7356 246° West 440 506 38,000  Level Memphis Center
Wed 11:58:57 AM 32.2306 -89.8711 248° West 440 506 38,000  Level Memphis Center
Wed 11:59:57 AM 32.1850 -90.0064 248° West 440 506 38,000  Level Memphis Center
Wed 12:00:57 PM 32.1353 -90.1414 247° West 440 506 38,000  Level Memphis Center
Wed 12:01:57 PM 32.0872 -90.2764 247° West 440 506 38,000  Level Memphis Center
Wed 12:02:57 PM 32.0394 -90.4064 247° West 440 506 38,000  Level Memphis Center
Wed 12:03:57 PM 31.9911 -90.5386 247° West 440 506 38,000  Level Memphis Center
Wed 12:05:07 PM 31.9444 -90.6694 247° West 439 505 38,000  Level Houston Center
Wed 12:06:09 PM 31.8942 -90.8089 247° West 444 511 38,000  Level Houston Center
Wed 12:07:11 PM 31.8361 -90.9664 247° West 441 507 38,000  Level Houston Center
Wed 12:08:13 PM 31.7897 -91.0917 246° West 443 510 38,000  Level Houston Center
Wed 12:09:15 PM 31.7378 -91.2292 246° West 441 507 38,000  Level Houston Center
Wed 12:10:18 PM 31.6889 -91.3603 246° West 439 505 38,000  Level Houston Center
Wed 12:11:20 PM 31.6419 -91.4925 247° West 442 509 38,000  Level Houston Center
Wed 12:12:22 PM 31.5944 -91.6244 247° West 442 509 38,000  Level Houston Center
Wed 12:13:24 PM 31.5358 -91.7825 247° West 442 509 38,000  Level Houston Center
Wed 12:14:26 PM 31.4878 -91.9142 247° West 442 509 38,000  Level Houston Center
Wed 12:15:28 PM 31.4386 -92.0439 246° West 445 512 38,000  Level Houston Center
Wed 12:16:30 PM 31.3889 -92.1758 246° West 447 514 38,000  Level Houston Center
Wed 12:17:32 PM 31.3403 -92.3086 247° West 448 516 38,000  Level Houston Center
Wed 12:18:35 PM 31.2794 -92.4672 246° West 456 525 38,000  Level Houston Center
Wed 12:19:37 PM 31.2314 -92.6000 247° West 449 517 38,000  Level Houston Center
Wed 12:20:39 PM 31.1819 -92.7336 247° West 448 516 38,000  Level Houston Center
Wed 12:21:41 PM 31.1325 -92.8661 246° West 447 514 38,000  Level Houston Center
Wed 12:22:43 PM 31.0825 -92.9978 246° West 446 513 38,000  Level Houston Center
Wed 12:23:45 PM 31.0322 -93.1314 246° West 450 518 38,000  Level Houston Center
Wed 12:24:47 PM 30.9717 -93.2906 246° West 451 519 38,000  Level Houston Center
Wed 12:25:49 PM 30.9214 -93.4217 246° West 449 517 38,000 -96 Level Houston Center
Wed 12:26:52 PM 30.8722 -93.5569 247° West 456 525 37,800 -1,248 Descending Houston Center
Wed 12:27:54 PM 30.8211 -93.6869 245° Southwest 450 518 35,400 -2,952 Descending Houston Center
Wed 12:28:56 PM 30.7592 -93.8467 246° West 454 522 31,700 -3,000 Descending Houston Center
Wed 12:29:58 PM 30.7061 -93.9811 245° Southwest 459 528 29,200 -2,495 Descending Houston Center
Wed 12:30:37 PM 30.6717 -94.0736 247° West 451 519 27,500 -2,442 Descending Houston Center
Wed 12:31:51 PM 30.6114 -94.2275 246° West 436 502 24,600 -2,489 Descending Houston Center
Wed 12:32:52 PM 30.5592 -94.3583 245° Southwest 426 490 21,900 -2,607 Descending Houston Center
Wed 12:33:53 PM 30.5100 -94.4789 245° Southwest 423 487 19,300 -1,795 Descending Houston Center
Wed 12:34:49 PM 30.4586 -94.5753 238° Southwest 377 434 18,400 -871 Descending Houston Center
Wed 12:35:57 PM 30.3833 -94.6892 233° Southwest 376 433 17,500 -917 Descending Houston Center
Wed 12:37:13 PM 30.3081 -94.8067 233° Southwest 371 427 16,200 -1,024 Descending Houston Center
Wed 12:38:00 PM 30.2589 -94.8817 233° Southwest 364 419 15,400 -968 Descending Houston Center
Wed 12:39:17 PM 30.1864 -94.9950 234° Southwest 363 418 14,200 -950 Descending Houston Center
Wed 12:40:19 PM 30.1217 -95.0761 227° Southwest 351 404 13,200 -1,402 Descending Houston Center
Wed 12:41:04 PM 30.0411 -95.1119 201° Southwest 350 403 11,700 -1,642 Descending Houston Center
Wed 12:42:05 PM 29.9500 -95.1497 200° South 342 394 10,300 -984 Descending Houston Center
Wed 12:43:06 PM 29.8719 -95.1906 204° Southwest 282 325 9,700 -1,033 Descending Houston Center
Wed 12:44:07 PM 29.8333 -95.2506 233° Southwest 226 260 8,200 -1,659 Descending Houston Center
Wed 12:45:09 PM 29.8097 -95.3114 246° West 203 234 6,300 -1,707 Descending Houston Center
Wed 12:46:10 PM 29.7839 -95.3722 244° Southwest 193 222 4,700 -1,415 Descending Houston Center
Wed 12:47:12 PM 29.7442 -95.3769 186° South 160 184 3,400 -1,317 Descending Houston Center
Wed 12:48:13 PM 29.7042 -95.3506 150° Southeast 166 191 2,000 -1,317 Descending Houston Center
Wed 12:49:15 PM 29.6711 -95.3111 134° Southeast 153 176 700 -1,258 Descending Houston Center
Wed 12:51:00 PM 29.6454 -95.2789 134° Southeast  Level Estimated
Wed 12:58:00 PM 29.6454 -95.2789 134° Southeast  Level Estimated

Login

Don't have an account? Register now (free) for customized features, flight alerts, and more!